Time;durP1;ratioP1;P1;durP2;ratioP2;P2;SDS_P1;SDS_P2;PMS_P1;PMS_P2;Temp;Humidity;BMP_temperature;BMP_pressure;BME280_temperature;BME280_humidity;BME280_pressure;Samples;Min_cycle;Max_cycle;Signal;HPM_P1;HPM_P2
2023/10/24 00:01:32;;;;;;;1.25;0.95;;;9.50;1.00;;;;;;5023488;28;20404;-81
2023/10/24 00:03:58;;;;;;;0.80;0.65;;;9.50;1.00;;;;;;5021244;28;20042;-79
2023/10/24 00:06:23;;;;;;;2.92;1.20;;;9.50;1.00;;;;;;5020900;28;20045;-80
2023/10/24 00:08:49;;;;;;;0.25;0.25;;;9.60;99.90;;;;;;5022346;28;20034;-80
2023/10/24 00:11:15;;;;;;;2.38;1.42;;;9.60;1.00;;;;;;5021703;28;20042;-80
2023/10/24 00:13:40;;;;;;;2.67;1.20;;;9.60;99.90;;;;;;5021764;28;20053;-80
2023/10/24 00:16:06;;;;;;;2.20;1.45;;;10.60;99.90;;;;;;5020915;28;20046;-79
2023/10/24 00:18:32;;;;;;;1.73;0.77;;;9.80;1.00;;;;;;5020914;28;20534;-80
2023/10/24 00:20:58;;;;;;;1.27;1.02;;;9.60;1.00;;;;;;5020666;28;20049;-80
2023/10/24 00:23:24;;;;;;;0.82;0.82;;;9.60;99.90;;;;;;5019417;28;20038;-79
2023/10/24 00:25:50;;;;;;;1.40;0.95;;;9.70;99.90;;;;;;5019718;28;20154;-79
2023/10/24 00:28:15;;;;;;;1.45;1.35;;;9.70;99.90;;;;;;5020642;28;20069;-79
2023/10/24 00:30:41;;;;;;;4.20;2.42;;;9.70;99.90;;;;;;5021048;28;20046;-80
2023/10/24 00:33:06;;;;;;;0.93;0.90;;;9.70;99.90;;;;;;5019210;28;20084;-79
2023/10/24 00:35:33;;;;;;;1.08;0.98;;;9.70;99.90;;;;;;5020560;28;20041;-79
2023/10/24 00:37:59;;;;;;;1.63;1.13;;;9.80;99.90;;;;;;5021389;28;20045;-81
2023/10/24 00:40:24;;;;;;;5.75;2.40;;;9.80;99.90;;;;;;5021997;28;20069;-80
2023/10/24 00:42:52;;;;;;;1.65;1.17;;;9.80;99.90;;;;;;5022873;28;20041;-80
2023/10/24 00:45:18;;;;;;;2.08;1.60;;;9.70;99.90;;;;;;5021828;28;20056;-80
2023/10/24 00:47:45;;;;;;;2.33;1.60;;;9.70;99.90;;;;;;5022594;28;20040;-80
2023/10/24 00:50:12;;;;;;;1.30;0.77;;;9.70;1.00;;;;;;5022758;28;20113;-80
2023/10/24 00:52:39;;;;;;;1.38;1.27;;;9.90;1.00;;;;;;5022017;28;20046;-82
2023/10/24 00:55:07;;;;;;;2.80;1.70;;;9.70;18.90;;;;;;5022632;28;20045;-80
2023/10/24 00:57:33;;;;;;;1.00;0.47;;;9.70;99.90;;;;;;5022124;28;20054;-80
2023/10/24 00:59:59;;;;;;;1.65;0.55;;;9.60;99.90;;;;;;5022609;28;20046;-81
2023/10/24 01:02:26;;;;;;;2.13;1.48;;;9.70;99.90;;;;;;5022956;28;20104;-80
2023/10/24 01:04:54;;;;;;;0.85;0.80;;;9.70;99.90;;;;;;5022248;28;20415;-81
2023/10/24 01:07:20;;;;;;;1.17;0.93;;;9.60;99.90;;;;;;5021523;28;20034;-81
2023/10/24 01:09:46;;;;;;;0.13;0.10;;;9.60;99.90;;;;;;5022096;28;20295;-81
2023/10/24 01:12:11;;;;;;;1.55;1.30;;;9.60;99.90;;;;;;5021832;28;20041;-81
2023/10/24 01:14:39;;;;;;;3.47;1.63;;;9.60;1.00;;;;;;5021580;28;20053;-81
2023/10/24 01:17:12;;;;;;;1.40;0.98;;;9.60;1.00;;;;;;5022129;28;20038;-83
2023/10/24 01:19:38;;;;;;;0.32;0.32;;;9.90;1.00;;;;;;5021646;28;20555;-82
2023/10/24 01:22:04;;;;;;;1.45;0.75;;;9.60;39.70;;;;;;5021665;28;20081;-82
2023/10/24 01:24:30;;;;;;;0.85;0.85;;;9.60;99.90;;;;;;5021452;28;20042;-81
2023/10/24 01:26:57;;;;;;;4.88;2.45;;;9.60;99.90;;;;;;5022693;28;20066;-82
2023/10/24 01:29:23;;;;;;;1.02;0.73;;;9.60;99.90;;;;;;5022334;28;20074;-81
2023/10/24 01:31:48;;;;;;;2.22;1.42;;;9.60;99.90;;;;;;5020809;28;20046;-81
2023/10/24 01:34:14;;;;;;;0.98;0.77;;;9.60;99.90;;;;;;5019795;28;20042;-82
2023/10/24 01:36:39;;;;;;;1.17;1.13;;;9.60;99.90;;;;;;5009827;28;20042;-80
2023/10/24 01:39:05;;;;;;;0.63;0.63;;;9.50;99.90;;;;;;5021776;28;20041;-80
2023/10/24 01:41:31;;;;;;;1.75;0.95;;;9.60;99.90;;;;;;5004198;28;20121;-80
2023/10/24 01:43:57;;;;;;;0.73;0.73;;;9.60;99.90;;;;;;5019527;28;20395;-79
2023/10/24 01:46:23;;;;;;;1.38;0.52;;;9.60;99.90;;;;;;5022213;28;20123;-81
2023/10/24 01:48:49;;;;;;;1.42;0.82;;;9.60;99.90;;;;;;5020298;28;20065;-81
2023/10/24 01:51:14;;;;;;;0.90;0.85;;;9.60;99.90;;;;;;5022015;28;20049;-81
2023/10/24 01:53:40;;;;;;;1.38;0.77;;;9.60;99.90;;;;;;5020395;28;20076;-81
2023/10/24 01:56:06;;;;;;;4.50;1.10;;;9.60;99.90;;;;;;5020640;28;20124;-81
2023/10/24 01:58:31;;;;;;;2.00;1.33;;;9.60;99.90;;;;;;5021046;28;20380;-81
2023/10/24 02:00:57;;;;;;;1.85;1.75;;;9.60;99.90;;;;;;5021163;28;20049;-81
2023/10/24 02:03:22;;;;;;;1.38;1.25;;;9.70;99.90;;;;;;5020651;28;20427;-81
2023/10/24 02:05:48;;;;;;;1.95;1.33;;;9.70;99.90;;;;;;5019571;28;20053;-80
2023/10/24 02:08:13;;;;;;;1.58;1.23;;;9.70;99.90;;;;;;5018269;28;20042;-79
2023/10/24 02:10:39;;;;;;;0.95;0.75;;;9.70;99.90;;;;;;5017561;28;20033;-80
2023/10/24 02:13:05;;;;;;;3.60;2.40;;;9.70;99.90;;;;;;5017175;28;20030;-79
2023/10/24 02:15:31;;;;;;;0.68;0.65;;;9.70;99.90;;;;;;5018707;28;20495;-79
2023/10/24 02:17:56;;;;;;;1.40;1.30;;;9.80;99.90;;;;;;5018793;28;20042;-79
2023/10/24 02:20:22;;;;;;;2.63;0.98;;;9.80;99.90;;;;;;5017879;28;20041;-79
2023/10/24 02:22:49;;;;;;;1.35;1.08;;;9.80;99.90;;;;;;5017673;28;20404;-79
2023/10/24 02:25:14;;;;;;;0.80;0.68;;;10.30;99.90;;;;;;5017833;28;20049;-79
2023/10/24 02:27:40;;;;;;;2.05;1.42;;;9.80;99.90;;;;;;5017757;28;20387;-79
2023/10/24 02:30:06;;;;;;;1.58;1.30;;;9.80;99.90;;;;;;5017385;28;20108;-79
2023/10/24 02:32:32;;;;;;;0.82;0.82;;;9.80;99.90;;;;;;5017171;28;20052;-79
2023/10/24 02:34:58;;;;;;;0.85;0.68;;;9.90;99.90;;;;;;5018490;28;20042;-79
2023/10/24 02:37:23;;;;;;;1.75;1.08;;;9.90;99.90;;;;;;5018433;28;20034;-79
2023/10/24 02:39:49;;;;;;;0.77;0.73;;;9.90;99.90;;;;;;5018379;28;20046;-79
2023/10/24 02:42:15;;;;;;;1.75;1.13;;;9.90;99.90;;;;;;5018766;28;20046;-80
2023/10/24 02:44:40;;;;;;;1.15;0.70;;;9.90;99.90;;;;;;5016853;28;20046;-80
2023/10/24 02:47:06;;;;;;;4.45;2.00;;;10.00;99.90;;;;;;5020221;28;20053;-79
2023/10/24 02:49:32;;;;;;;1.77;1.55;;;10.00;99.90;;;;;;5022748;28;20042;-81
2023/10/24 02:51:58;;;;;;;1.52;0.63;;;10.00;99.90;;;;;;5022801;28;20104;-80
2023/10/24 02:54:24;;;;;;;0.20;0.20;;;10.00;99.90;;;;;;5021139;28;20050;-80
2023/10/24 02:56:50;;;;;;;3.20;1.95;;;10.00;99.90;;;;;;5037772;28;20056;-80
2023/10/24 02:59:16;;;;;;;3.35;1.45;;;10.00;99.90;;;;;;5022168;28;20458;-79
2023/10/24 03:01:42;;;;;;;2.28;1.38;;;10.00;99.90;;;;;;5022103;28;20042;-79
2023/10/24 03:04:08;;;;;;;1.48;0.70;;;10.10;99.90;;;;;;5022461;28;20116;-80
2023/10/24 03:06:33;;;;;;;0.50;0.50;;;10.10;99.90;;;;;;5023659;28;20046;-80
2023/10/24 03:08:59;;;;;;;1.40;0.93;;;10.40;99.90;;;;;;5024024;28;20044;-80
2023/10/24 03:11:25;;;;;;;2.38;0.50;;;10.20;99.90;;;;;;5024391;28;20038;-80
2023/10/24 03:13:54;;;;;;;3.58;1.85;;;10.20;99.90;;;;;;5022454;28;20038;-80
2023/10/24 03:16:21;;;;;;;4.70;1.58;;;10.30;99.90;;;;;;5022448;28;20466;-79
2023/10/24 03:18:47;;;;;;;1.67;1.20;;;10.20;99.90;;;;;;5020602;28;20112;-80
2023/10/24 03:21:13;;;;;;;1.65;0.68;;;10.30;99.90;;;;;;5022758;28;20503;-80
2023/10/24 03:23:40;;;;;;;0.68;0.68;;;10.20;99.90;;;;;;5021992;28;20049;-79
2023/10/24 03:26:06;;;;;;;0.75;0.50;;;10.30;99.90;;;;;;5022735;28;20052;-80
2023/10/24 03:28:33;;;;;;;0.43;0.30;;;10.30;99.90;;;;;;5018147;28;20042;-80
2023/10/24 03:31:06;;;;;;;1.00;0.70;;;10.30;99.90;;;;;;5022598;28;20049;-79
2023/10/24 03:33:33;;;;;;;5.75;2.83;;;10.30;99.90;;;;;;5022101;28;20048;-80
2023/10/24 03:35:59;;;;;;;0.60;0.60;;;10.30;99.90;;;;;;5022286;28;20038;-79
2023/10/24 03:38:26;;;;;;;3.17;1.08;;;10.30;99.90;;;;;;5022580;28;20092;-79
2023/10/24 03:40:53;;;;;;;0.10;0.10;;;10.40;99.90;;;;;;5022517;28;20038;-80
2023/10/24 03:43:19;;;;;;;1.20;0.90;;;10.40;99.90;;;;;;5022550;28;20046;-80
2023/10/24 03:45:44;;;;;;;3.28;0.77;;;10.40;99.90;;;;;;5021979;28;20046;-80
2023/10/24 03:48:11;;;;;;;0.80;0.60;;;10.40;99.90;;;;;;5022430;28;20480;-80
2023/10/24 03:50:37;;;;;;;2.95;1.02;;;10.40;99.90;;;;;;5023601;28;20108;-80
2023/10/24 03:53:04;;;;;;;4.22;1.13;;;10.40;99.90;;;;;;5022637;28;20041;-80
2023/10/24 03:55:30;;;;;;;1.23;1.13;;;10.40;99.90;;;;;;5022555;28;20069;-80
2023/10/24 03:57:56;;;;;;;3.78;0.85;;;10.50;99.90;;;;;;5021408;28;20442;-80
2023/10/24 04:00:22;;;;;;;0.28;0.28;;;10.50;99.90;;;;;;5021751;28;20468;-80
2023/10/24 04:02:51;;;;;;;0.40;0.38;;;10.50;99.90;;;;;;5023000;28;20070;-80
2023/10/24 04:05:17;;;;;;;1.20;0.93;;;10.50;99.90;;;;;;5022145;28;20038;-80
2023/10/24 04:07:42;;;;;;;1.08;0.80;;;10.60;99.90;;;;;;5022945;28;20122;-80
2023/10/24 04:10:08;;;;;;;0.93;0.85;;;10.60;99.90;;;;;;5023299;28;20037;-80
2023/10/24 04:12:34;;;;;;;2.38;1.30;;;10.60;99.90;;;;;;5020269;28;20034;-80
2023/10/24 04:14:59;;;;;;;1.23;0.85;;;10.60;99.90;;;;;;5021874;28;20045;-80
2023/10/24 04:17:25;;;;;;;0.47;0.47;;;10.60;99.90;;;;;;5021660;28;20145;-80
2023/10/24 04:19:50;;;;;;;1.90;0.50;;;10.60;99.90;;;;;;5023596;28;20095;-80
2023/10/24 04:22:16;;;;;;;1.48;1.25;;;10.60;99.90;;;;;;5022527;28;20068;-81
2023/10/24 04:24:42;;;;;;;0.60;0.60;;;10.60;99.90;;;;;;5022205;28;20068;-81
2023/10/24 04:27:09;;;;;;;1.45;0.65;;;10.70;99.90;;;;;;5023188;28;20495;-79
2023/10/24 04:29:34;;;;;;;2.30;1.63;;;10.70;99.90;;;;;;5022436;28;20069;-80
2023/10/24 04:32:00;;;;;;;2.05;1.25;;;10.70;99.90;;;;;;5023256;28;20443;-80
2023/10/24 04:34:25;;;;;;;1.73;1.30;;;10.70;99.90;;;;;;5022959;28;20042;-81
2023/10/24 04:36:53;;;;;;;14.23;4.28;;;10.70;99.90;;;;;;5022713;28;20041;-80
2023/10/24 04:39:19;;;;;;;3.05;1.73;;;10.70;99.90;;;;;;5022480;28;20068;-80
2023/10/24 04:41:47;;;;;;;0.22;0.22;;;10.80;99.90;;;;;;5022864;28;20050;-80
2023/10/24 04:44:13;;;;;;;2.25;1.42;;;10.80;99.90;;;;;;5022758;28;20546;-82
2023/10/24 04:46:38;;;;;;;1.45;1.00;;;10.80;99.90;;;;;;5021423;28;20041;-81
2023/10/24 04:49:04;;;;;;;1.67;1.27;;;10.90;99.90;;;;;;5021798;28;20034;-81
2023/10/24 04:51:30;;;;;;;4.40;1.65;;;10.90;99.90;;;;;;5021944;28;20128;-81
2023/10/24 04:53:55;;;;;;;0.43;0.43;;;11.00;99.90;;;;;;5022054;28;20407;-80
2023/10/24 04:56:21;;;;;;;1.02;0.98;;;11.00;99.90;;;;;;5021551;28;20050;-81
2023/10/24 04:58:47;;;;;;;0.65;0.57;;;11.00;99.90;;;;;;5020879;28;20046;-80
2023/10/24 05:01:12;;;;;;;0.60;0.60;;;11.00;99.90;;;;;;5022822;28;20443;-80
2023/10/24 05:03:38;;;;;;;0.98;0.93;;;11.00;99.90;;;;;;5021993;28;20050;-80
2023/10/24 05:06:05;;;;;;;0.93;0.82;;;11.20;99.90;;;;;;5021810;28;20040;-80
2023/10/24 05:08:30;;;;;;;1.20;0.90;;;11.20;99.90;;;;;;5021028;28;20048;-81
2023/10/24 05:10:56;;;;;;;1.13;1.00;;;11.40;99.90;;;;;;5013922;28;20042;-81
2023/10/24 05:13:21;;;;;;;2.03;1.13;;;11.10;99.90;;;;;;5021958;28;20049;-81
2023/10/24 05:15:47;;;;;;;0.30;0.30;;;11.10;99.90;;;;;;5022850;28;20044;-81
2023/10/24 05:18:13;;;;;;;1.55;0.68;;;11.20;99.90;;;;;;5021609;28;20104;-81
2023/10/24 05:20:39;;;;;;;0.70;0.70;;;11.10;99.90;;;;;;5021525;28;20073;-81
2023/10/24 05:23:05;;;;;;;0.73;0.73;;;11.10;99.90;;;;;;5020770;28;20429;-81
2023/10/24 05:25:31;;;;;;;0.73;0.73;;;11.10;99.90;;;;;;5021838;28;20034;-81
2023/10/24 05:27:57;;;;;;;2.47;1.50;;;11.10;99.90;;;;;;5036331;28;20042;-81
2023/10/24 05:30:23;;;;;;;4.97;0.77;;;11.10;99.90;;;;;;5021041;28;20076;-80
2023/10/24 05:32:48;;;;;;;1.02;0.90;;;11.00;99.90;;;;;;5021477;28;20468;-81
2023/10/24 05:35:14;;;;;;;0.93;0.80;;;11.10;99.90;;;;;;5021078;28;20065;-81
2023/10/24 05:37:40;;;;;;;1.08;0.95;;;11.10;99.90;;;;;;5021157;28;20121;-80
2023/10/24 05:40:06;;;;;;;1.08;0.70;;;11.00;99.90;;;;;;5019611;28;20042;-81
2023/10/24 05:42:32;;;;;;;0.47;0.47;;;11.00;99.90;;;;;;5020962;28;20053;-81
2023/10/24 05:44:58;;;;;;;1.92;1.70;;;11.10;99.90;;;;;;5021734;28;20042;-81
2023/10/24 05:47:23;;;;;;;0.45;0.45;;;11.00;99.90;;;;;;5021569;28;20041;-80
2023/10/24 05:49:50;;;;;;;1.77;1.67;;;11.10;99.90;;;;;;5020623;28;20065;-81
2023/10/24 05:52:16;;;;;;;0.35;0.22;;;11.10;99.90;;;;;;5020564;28;20072;-81
2023/10/24 05:54:42;;;;;;;1.13;0.40;;;11.70;99.90;;;;;;5021124;28;20062;-80
2023/10/24 05:57:07;;;;;;;0.35;0.35;;;11.10;99.90;;;;;;5020964;28;20385;-80
2023/10/24 05:59:33;;;;;;;0.40;0.40;;;10.90;99.90;;;;;;5021213;28;20050;-80
2023/10/24 06:01:59;;;;;;;1.52;1.25;;;10.90;99.90;;;;;;5021115;28;20057;-81
2023/10/24 06:04:25;;;;;;;0.30;0.30;;;10.90;99.90;;;;;;5020965;28;20507;-81
2023/10/24 06:06:50;;;;;;;0.17;0.17;;;10.90;99.90;;;;;;5020524;28;20034;-80
2023/10/24 06:09:17;;;;;;;0.88;0.60;;;10.90;99.90;;;;;;5020496;28;20046;-80
2023/10/24 06:11:43;;;;;;;1.08;0.98;;;10.90;99.90;;;;;;5021104;28;20076;-80
2023/10/24 06:14:09;;;;;;;0.10;0.10;;;10.90;99.90;;;;;;5020177;28;20045;-81
2023/10/24 06:16:35;;;;;;;0.52;0.52;;;10.90;99.90;;;;;;5019548;28;20045;-80
2023/10/24 06:19:00;;;;;;;1.70;1.08;;;10.80;99.90;;;;;;5020422;28;20081;-81
2023/10/24 06:21:26;;;;;;;1.55;0.98;;;10.80;99.90;;;;;;5017740;28;20038;-79
2023/10/24 06:23:53;;;;;;;0.52;0.52;;;10.80;99.90;;;;;;5015624;28;20534;-79
2023/10/24 06:26:19;;;;;;;0.45;0.45;;;10.90;99.90;;;;;;5017624;28;20557;-80
2023/10/24 06:28:45;;;;;;;0.55;0.55;;;10.90;99.90;;;;;;5018450;28;20045;-81
2023/10/24 06:31:11;;;;;;;1.75;1.08;;;10.90;99.90;;;;;;5017091;28;20060;-79
2023/10/24 06:33:38;;;;;;;0.05;0.05;;;10.90;99.90;;;;;;5017475;28;20042;-80
2023/10/24 06:36:04;;;;;;;2.03;0.98;;;11.00;99.90;;;;;;5017751;28;20054;-80
2023/10/24 06:38:30;;;;;;;0.45;0.45;;;10.90;99.90;;;;;;5017400;28;20041;-80
2023/10/24 06:40:58;;;;;;;0.65;0.43;;;10.90;99.90;;;;;;5019372;28;20049;-80
2023/10/24 06:43:25;;;;;;;0.47;0.38;;;11.00;99.90;;;;;;5018411;28;20053;-80
2023/10/24 06:45:51;;;;;;;0.82;0.70;;;10.90;99.90;;;;;;5018197;28;20461;-81
2023/10/24 06:48:18;;;;;;;1.58;0.95;;;11.00;99.90;;;;;;5019235;28;20041;-81
2023/10/24 06:50:43;;;;;;;0.40;0.40;;;11.00;99.90;;;;;;5018935;28;20084;-81
2023/10/24 06:53:10;;;;;;;0.50;0.30;;;11.00;99.90;;;;;;5019194;28;20503;-80
2023/10/24 06:55:36;;;;;;;1.23;0.73;;;11.00;99.90;;;;;;5016767;28;20046;-81
2023/10/24 06:58:03;;;;;;;0.85;0.30;;;11.00;99.90;;;;;;5017604;28;20038;-80
2023/10/24 07:00:29;;;;;;;0.95;0.82;;;11.00;99.90;;;;;;5016492;28;20034;-81
2023/10/24 07:02:54;;;;;;;0.77;0.65;;;11.00;99.90;;;;;;5016895;28;20034;-81
2023/10/24 07:05:20;;;;;;;2.70;1.35;;;11.00;99.90;;;;;;5016967;28;20038;-81
2023/10/24 07:07:46;;;;;;;0.60;0.55;;;11.00;99.90;;;;;;5016257;28;20503;-81
2023/10/24 07:10:12;;;;;;;0.15;0.15;;;10.90;99.90;;;;;;5015982;28;20046;-81
2023/10/24 07:12:38;;;;;;;0.55;0.55;;;11.00;99.90;;;;;;5016368;28;20049;-80
2023/10/24 07:15:04;;;;;;;0.40;0.32;;;11.00;99.90;;;;;;4998428;28;20038;-81
2023/10/24 07:17:30;;;;;;;1.73;0.50;;;11.00;99.90;;;;;;5014738;28;20046;-81
2023/10/24 07:19:58;;;;;;;0.60;0.52;;;11.50;99.90;;;;;;5015163;28;20141;-80
2023/10/24 07:22:24;;;;;;;2.03;1.42;;;11.10;99.90;;;;;;5014481;28;20056;-80
2023/10/24 07:24:50;;;;;;;1.25;1.15;;;11.10;99.90;;;;;;5015451;28;20038;-80
2023/10/24 07:27:15;;;;;;;0.40;0.32;;;11.00;99.90;;;;;;5016974;28;20033;-81
2023/10/24 07:29:41;;;;;;;0.75;0.75;;;11.00;99.90;;;;;;5017657;28;20042;-81
2023/10/24 07:32:07;;;;;;;0.20;0.20;;;11.00;99.90;;;;;;5018603;28;20050;-81
2023/10/24 07:34:36;;;;;;;0.73;0.65;;;11.00;99.90;;;;;;5020570;28;20038;-81
2023/10/24 07:37:02;;;;;;;1.90;1.23;;;11.00;99.90;;;;;;5021095;28;20104;-81
2023/10/24 07:39:27;;;;;;;0.40;0.40;;;11.00;99.90;;;;;;5019674;28;20045;-79
2023/10/24 07:41:53;;;;;;;0.17;0.17;;;11.00;99.90;;;;;;5019278;28;20085;-80
2023/10/24 07:44:19;;;;;;;0.55;0.40;;;11.00;99.90;;;;;;5018454;28;20073;-79
2023/10/24 07:46:45;;;;;;;0.52;0.52;;;11.00;99.90;;;;;;5019804;28;20045;-80
2023/10/24 07:49:10;;;;;;;0.22;0.20;;;11.10;99.90;;;;;;5018901;28;20041;-80
2023/10/24 07:51:36;;;;;;;0.98;0.80;;;11.00;99.90;;;;;;5019087;28;20033;-81
2023/10/24 07:54:02;;;;;;;0.38;0.38;;;11.10;99.90;;;;;;5020086;28;20046;-81
2023/10/24 07:56:27;;;;;;;0.93;0.70;;;11.30;99.90;;;;;;4983044;28;1058466;-80
2023/10/24 07:58:53;;;;;;;2.60;0.82;;;11.10;99.90;;;;;;5020509;28;20212;-81
2023/10/24 08:01:19;;;;;;;0.80;0.65;;;11.10;99.90;;;;;;5020416;28;20050;-81
2023/10/24 08:03:44;;;;;;;1.02;0.65;;;11.10;99.90;;;;;;5020623;28;20109;-81
2023/10/24 08:06:11;;;;;;;0.75;0.65;;;11.10;99.90;;;;;;5020924;28;20442;-80
2023/10/24 08:08:37;;;;;;;0.80;0.43;;;11.60;99.90;;;;;;5019024;28;20050;-80
2023/10/24 08:11:02;;;;;;;0.30;0.30;;;11.10;99.90;;;;;;5022565;28;20069;-80
2023/10/24 08:13:28;;;;;;;0.82;0.65;;;11.10;99.90;;;;;;5023434;28;20061;-80
2023/10/24 08:15:58;;;;;;;1.60;0.80;;;11.10;99.90;;;;;;5022147;28;20095;-80
2023/10/24 08:18:27;;;;;;;0.73;0.73;;;11.10;99.90;;;;;;5021602;28;20049;-80
2023/10/24 08:20:53;;;;;;;1.50;1.10;;;11.10;99.90;;;;;;5022071;28;20534;-80
2023/10/24 08:23:19;;;;;;;0.10;0.10;;;11.10;99.90;;;;;;5022334;28;20511;-81
2023/10/24 08:25:45;;;;;;;0.65;0.32;;;11.10;99.90;;;;;;5021907;28;20042;-80
2023/10/24 08:28:10;;;;;;;0.50;0.47;;;11.10;99.90;;;;;;5022017;28;20054;-81
2023/10/24 08:30:36;;;;;;;0.63;0.60;;;11.10;99.90;;;;;;5021959;28;20066;-81
2023/10/24 08:33:01;;;;;;;1.70;1.50;;;11.10;99.90;;;;;;5022360;28;20046;-81
2023/10/24 08:35:27;;;;;;;1.27;0.90;;;11.10;99.90;;;;;;5022575;28;20583;-80
2023/10/24 08:37:53;;;;;;;0.90;0.60;;;11.10;99.90;;;;;;5021857;28;20046;-80
2023/10/24 08:40:20;;;;;;;0.75;0.32;;;11.10;99.90;;;;;;5021695;28;20052;-81
2023/10/24 08:42:45;;;;;;;0.30;0.30;;;11.10;99.90;;;;;;5021969;28;20097;-80
2023/10/24 08:45:16;;;;;;;1.55;0.90;;;11.20;99.90;;;;;;5021180;28;20120;-81
2023/10/24 08:47:43;;;;;;;25.17;1.05;;;11.20;99.90;;;;;;5021529;28;20053;-80
2023/10/24 08:50:09;;;;;;;1.80;0.57;;;11.20;99.90;;;;;;5022442;28;20068;-81
2023/10/24 08:52:35;;;;;;;0.73;0.60;;;11.20;99.90;;;;;;5020336;28;20080;-80
2023/10/24 08:55:03;;;;;;;1.23;0.93;;;11.20;99.90;;;;;;5020741;28;20030;-80
2023/10/24 08:57:34;;;;;;;0.77;0.70;;;11.20;99.90;;;;;;5021379;28;20054;-81
2023/10/24 09:00:01;;;;;;;1.08;0.98;;;11.30;99.90;;;;;;5022251;28;20079;-80
2023/10/24 09:02:27;;;;;;;0.63;0.63;;;11.30;99.90;;;;;;5021684;28;20049;-81
2023/10/24 09:04:53;;;;;;;1.90;0.55;;;11.30;99.90;;;;;;5021030;28;20050;-81
2023/10/24 09:07:19;;;;;;;0.80;0.65;;;11.30;99.90;;;;;;5021244;28;20052;-80
2023/10/24 09:09:44;;;;;;;0.47;0.47;;;11.40;99.90;;;;;;5021673;28;20072;-80
2023/10/24 09:12:14;;;;;;;0.20;0.10;;;11.40;99.90;;;;;;5021703;28;20037;-80
2023/10/24 09:14:44;;;;;;;3.10;1.75;;;11.40;1.00;;;;;;5021276;28;20092;-80
2023/10/24 09:17:11;;;;;;;1.55;1.08;;;11.30;1.00;;;;;;5021081;28;20046;-80
2023/10/24 09:19:40;;;;;;;2.38;1.98;;;11.30;99.90;;;;;;5021367;28;20097;-80
2023/10/24 09:22:05;;;;;;;1.38;0.70;;;11.30;1.00;;;;;;5020962;28;20120;-81
2023/10/24 09:24:31;;;;;;;0.20;0.20;;;11.20;99.90;;;;;;5021286;28;20432;-81
2023/10/24 09:26:59;;;;;;;1.65;1.08;;;11.20;99.90;;;;;;5020501;28;20048;-80
2023/10/24 09:29:27;;;;;;;1.17;0.75;;;11.20;99.90;;;;;;5021408;28;20438;-80
2023/10/24 09:31:53;;;;;;;2.15;0.70;;;11.10;99.90;;;;;;5020852;28;20043;-81
2023/10/24 09:34:19;;;;;;;1.35;0.82;;;11.10;99.90;;;;;;5020200;28;20046;-81
2023/10/24 09:36:46;;;;;;;1.40;1.30;;;11.20;61.20;;;;;;5020508;28;20048;-81
2023/10/24 09:39:12;;;;;;;0.52;0.52;;;11.10;99.90;;;;;;5019825;28;20046;-81
2023/10/24 09:41:42;;;;;;;3.08;1.85;;;11.10;33.90;;;;;;5021258;28;20048;-81
2023/10/24 09:44:08;;;;;;;2.47;0.90;;;11.20;99.90;;;;;;5021056;28;20088;-80
2023/10/24 09:46:35;;;;;;;1.90;1.02;;;11.20;1.00;;;;;;5019926;28;20045;-82
2023/10/24 09:49:02;;;;;;;1.55;0.75;;;11.10;99.90;;;;;;5019497;28;20049;-82
2023/10/24 09:51:28;;;;;;;1.17;0.88;;;11.10;99.90;;;;;;5018575;28;20033;-82
2023/10/24 09:53:55;;;;;;;2.20;0.57;;;11.00;99.90;;;;;;5017414;28;20042;-83
2023/10/24 09:56:21;;;;;;;0.30;0.30;;;11.10;99.90;;;;;;5015990;28;20065;-82
2023/10/24 09:58:46;;;;;;;3.90;1.30;;;11.10;99.90;;;;;;5016678;28;20096;-83
2023/10/24 10:01:12;;;;;;;0.70;0.60;;;11.10;99.90;;;;;;5016683;28;20132;-83
2023/10/24 10:03:38;;;;;;;1.00;0.93;;;11.20;99.90;;;;;;5016188;28;20518;-82
2023/10/24 10:06:08;;;;;;;0.65;0.65;;;11.20;99.90;;;;;;5015052;28;20041;-83
2023/10/24 10:08:36;;;;;;;2.05;1.63;;;11.20;99.90;;;;;;5016361;28;20046;-82
2023/10/24 10:11:06;;;;;;;0.17;0.15;;;11.30;99.90;;;;;;5015068;28;20461;-83
2023/10/24 10:13:39;;;;;;;0.98;0.88;;;11.20;92.80;;;;;;5015503;28;20077;-82
2023/10/24 10:16:36;;;;;;;0.85;0.68;;;11.10;99.90;;;;;;5015543;28;20038;-83
2023/10/24 10:19:19;;;;;;;1.55;0.85;;;11.10;99.90;;;;;;5017286;28;20046;-83
2023/10/24 10:22:15;;;;;;;0.88;0.82;;;11.00;99.90;;;;;;5017374;28;20050;-83
2023/10/24 10:25:03;;;;;;;1.10;1.00;;;11.00;99.90;;;;;;5012738;28;20125;-82
2023/10/24 10:27:47;;;;;;;0.25;0.25;;;11.00;99.90;;;;;;5013717;28;20488;-82
2023/10/24 10:30:21;;;;;;;1.00;0.75;;;11.00;99.90;;;;;;5015837;28;20403;-83
2023/10/24 10:32:47;;;;;;;1.13;0.98;;;11.10;99.90;;;;;;5016389;28;20057;-83
2023/10/24 10:35:13;;;;;;;0.52;0.52;;;11.10;99.90;;;;;;5018393;28;20487;-83
2023/10/24 10:37:39;;;;;;;3.63;1.23;;;11.20;99.90;;;;;;5016898;28;20072;-83
2023/10/24 10:40:22;;;;;;;0.90;0.85;;;11.30;99.90;;;;;;5016608;28;20132;-83
2023/10/24 10:42:48;;;;;;;1.55;1.27;;;11.40;99.90;;;;;;5017785;28;20053;-82
2023/10/24 10:45:32;;;;;;;2.47;1.42;;;11.50;1.00;;;;;;5018851;28;20088;-82
2023/10/24 10:47:59;;;;;;;0.50;0.50;;;11.60;1.00;;;;;;5020123;28;20037;-82
2023/10/24 10:50:32;;;;;;;2.13;1.13;;;11.60;99.90;;;;;;5018338;28;20042;-82
2023/10/24 10:53:22;;;;;;;0.45;0.40;;;11.70;99.90;;;;;;5017633;28;20038;-83
2023/10/24 10:56:19;;;;;;;0.15;0.15;;;11.60;99.90;;;;;;5012643;28;20046;-83
2023/10/24 10:58:58;;;;;;;1.17;0.50;;;11.60;99.90;;;;;;5016198;28;20049;-82
2023/10/24 11:01:50;;;;;;;0.10;0.10;;;11.60;1.00;;;;;;5017732;28;20049;-82
2023/10/24 11:04:16;;;;;;;0.28;0.28;;;11.60;1.00;;;;;;5012998;28;20471;-82
2023/10/24 11:06:53;;;;;;;1.75;0.65;;;11.60;99.90;;;;;;5016767;28;20049;-83
2023/10/24 11:09:20;;;;;;;;;;;11.70;58.60;;;;;;5021820;28;20052;-82
2023/10/24 11:11:46;;;;;;;0.40;0.40;;;11.80;1.00;;;;;;5021143;28;19984;-83
2023/10/24 11:14:19;;;;;;;2.20;1.15;;;11.70;1.00;;;;;;5021568;28;20100;-82
2023/10/24 11:16:48;;;;;;;1.55;1.00;;;11.80;99.90;;;;;;5021789;28;20559;-83
2023/10/24 11:19:21;;;;;;;1.45;1.35;;;11.80;99.90;;;;;;5021513;28;20049;-82
2023/10/24 11:21:51;;;;;;;0.43;0.40;;;11.90;1.00;;;;;;5022090;28;20046;-82
2023/10/24 11:24:19;;;;;;;1.02;0.90;;;11.90;1.00;;;;;;5022262;28;20495;-82
2023/10/24 11:26:45;;;;;;;0.57;0.57;;;11.80;11.50;;;;;;5021595;28;20125;-82
2023/10/24 11:29:13;;;;;;;0.45;0.45;;;11.80;1.00;;;;;;5021603;28;20065;-82
2023/10/24 11:31:38;;;;;;;1.00;0.35;;;11.90;1.00;;;;;;5022000;28;20057;-81
2023/10/24 11:34:04;;;;;;;0.28;0.25;;;11.90;99.90;;;;;;5021819;28;20194;-82
2023/10/24 11:36:30;;;;;;;0.32;0.32;;;11.80;99.90;;;;;;5022028;28;20037;-83
2023/10/24 11:38:58;;;;;;;4.10;0.82;;;11.80;1.00;;;;;;5021668;28;20411;-82
2023/10/24 11:41:25;;;;;;;1.13;0.68;;;11.80;1.00;;;;;;5021917;28;20045;-82
2023/10/24 11:43:51;;;;;;;0.10;0.10;;;11.80;99.90;;;;;;5021550;28;20213;-83
2023/10/24 11:46:17;;;;;;;1.30;1.10;;;11.90;99.90;;;;;;5021730;28;20661;-82
2023/10/24 11:48:43;;;;;;;0.63;0.47;;;11.90;1.00;;;;;;5022286;28;20121;-82
2023/10/24 11:51:08;;;;;;;1.33;0.40;;;11.90;1.00;;;;;;5022215;28;20044;-82
2023/10/24 11:53:34;;;;;;;0.75;0.30;;;11.90;99.90;;;;;;5021632;28;20042;-82
2023/10/24 11:56:00;;;;;;;1.13;0.85;;;11.80;1.00;;;;;;5021999;28;20107;-81
2023/10/24 11:58:33;;;;;;;0.63;0.47;;;11.80;1.00;;;;;;5021380;28;20058;-82
2023/10/24 12:01:00;;;;;;;0.98;0.45;;;11.80;1.00;;;;;;5022739;28;20100;-81
2023/10/24 12:03:27;;;;;;;1.10;0.57;;;11.70;99.90;;;;;;5022222;28;20443;-82
2023/10/24 12:05:54;;;;;;;1.77;0.50;;;11.80;99.90;;;;;;5022048;28;20380;-82
2023/10/24 12:08:24;;;;;;;0.20;0.20;;;11.80;99.90;;;;;;5021720;28;20064;-81
2023/10/24 12:10:54;;;;;;;1.25;0.70;;;11.80;50.70;;;;;;5022179;28;20050;-81
2023/10/24 12:13:22;;;;;;;0.98;0.88;;;11.80;99.90;;;;;;5023050;28;20407;-83
2023/10/24 12:15:49;;;;;;;0.32;0.30;;;11.90;99.90;;;;;;5022776;28;20463;-81
2023/10/24 12:18:15;;;;;;;0.10;0.10;;;11.90;1.00;;;;;;5023085;28;20064;-82
2023/10/24 12:20:40;;;;;;;0.68;0.68;;;12.10;55.20;;;;;;5023563;28;20046;-82
2023/10/24 12:23:06;;;;;;;0.22;0.22;;;12.30;99.90;;;;;;5023633;28;20044;-82
2023/10/24 12:25:33;;;;;;;1.08;0.68;;;12.70;99.90;;;;;;5020960;28;20180;-81
2023/10/24 12:27:59;;;;;;;0.30;0.30;;;12.70;17.50;;;;;;5023044;28;20412;-81
2023/10/24 12:30:25;;;;;;;1.77;0.70;;;12.90;1.00;;;;;;5021566;28;20034;-82
2023/10/24 12:32:51;;;;;;;0.28;0.17;;;13.00;9.50;;;;;;5021546;28;20468;-82
2023/10/24 12:35:16;;;;;;;4.28;0.93;;;13.10;99.90;;;;;;5021601;28;20377;-81
2023/10/24 12:37:42;;;;;;;1.25;0.63;;;13.20;99.90;;;;;;5019964;28;20499;-81
2023/10/24 12:40:08;;;;;;;1.20;0.80;;;13.20;1.00;;;;;;5021690;28;20038;-82
2023/10/24 12:42:33;;;;;;;1.27;0.95;;;13.10;1.00;;;;;;5021905;28;20109;-80
2023/10/24 12:45:06;;;;;;;1.95;0.65;;;13.00;99.90;;;;;;5021439;28;20041;-81
2023/10/24 12:47:32;;;;;;;0.43;0.43;;;13.00;1.00;;;;;;5021805;28;20439;-81
2023/10/24 12:49:57;;;;;;;0.82;0.80;;;12.80;1.00;;;;;;5021431;28;20125;-81